sensor_id;sensor_type;location;lat;lon;timestamp;P1;durP1;ratioP1;P2;durP2;ratioP2
20014;SDS011;61787;42.022;23.078;2022-08-19T00:00:27;5.95;;;5.13;;
20014;SDS011;61787;42.022;23.078;2022-08-19T00:01:29;5.43;;;4.75;;
20014;SDS011;61787;42.022;23.078;2022-08-19T00:02:31;7.28;;;4.95;;
20014;SDS011;61787;42.022;23.078;2022-08-19T00:03:33;7.32;;;4.82;;
20014;SDS011;61787;42.022;23.078;2022-08-19T00:04:35;6.97;;;4.82;;
20014;SDS011;61787;42.022;23.078;2022-08-19T00:05:38;5.60;;;4.53;;
20014;SDS011;61787;42.022;23.078;2022-08-19T00:06:41;5.10;;;4.60;;
20014;SDS011;61787;42.022;23.078;2022-08-19T00:07:44;5.22;;;4.78;;
20014;SDS011;61787;42.022;23.078;2022-08-19T00:08:46;7.65;;;5.30;;
20014;SDS011;61787;42.022;23.078;2022-08-19T00:09:47;8.10;;;5.00;;
20014;SDS011;61787;42.022;23.078;2022-08-19T00:10:49;6.43;;;4.85;;
20014;SDS011;61787;42.022;23.078;2022-08-19T00:11:51;4.80;;;4.30;;
20014;SDS011;61787;42.022;23.078;2022-08-19T00:12:53;6.40;;;4.88;;
20014;SDS011;61787;42.022;23.078;2022-08-19T00:13:55;6.72;;;5.00;;
20014;SDS011;61787;42.022;23.078;2022-08-19T00:14:57;5.72;;;5.07;;
20014;SDS011;61787;42.022;23.078;2022-08-19T00:15:59;7.15;;;4.88;;
20014;SDS011;61787;42.022;23.078;2022-08-19T00:17:02;5.00;;;4.60;;
20014;SDS011;61787;42.022;23.078;2022-08-19T00:18:05;7.78;;;5.07;;
20014;SDS011;61787;42.022;23.078;2022-08-19T00:19:07;5.82;;;4.90;;
20014;SDS011;61787;42.022;23.078;2022-08-19T00:20:09;10.05;;;5.03;;
20014;SDS011;61787;42.022;23.078;2022-08-19T00:21:14;7.32;;;5.45;;
20014;SDS011;61787;42.022;23.078;2022-08-19T00:22:15;8.35;;;5.45;;
20014;SDS011;61787;42.022;23.078;2022-08-19T00:23:19;8.50;;;5.00;;
20014;SDS011;61787;42.022;23.078;2022-08-19T00:24:21;6.13;;;5.53;;
20014;SDS011;61787;42.022;23.078;2022-08-19T00:25:23;5.70;;;5.13;;
20014;SDS011;61787;42.022;23.078;2022-08-19T00:26:30;6.35;;;5.68;;
20014;SDS011;61787;42.022;23.078;2022-08-19T00:27:32;6.30;;;5.70;;
20014;SDS011;61787;42.022;23.078;2022-08-19T00:28:34;6.38;;;5.78;;
20014;SDS011;61787;42.022;23.078;2022-08-19T00:29:37;8.07;;;5.88;;
20014;SDS011;61787;42.022;23.078;2022-08-19T00:30:39;7.47;;;5.90;;
20014;SDS011;61787;42.022;23.078;2022-08-19T00:31:42;5.85;;;5.35;;
20014;SDS011;61787;42.022;23.078;2022-08-19T00:32:44;6.10;;;5.50;;
20014;SDS011;61787;42.022;23.078;2022-08-19T00:33:46;6.18;;;5.57;;
20014;SDS011;61787;42.022;23.078;2022-08-19T00:34:50;7.15;;;6.00;;
20014;SDS011;61787;42.022;23.078;2022-08-19T00:35:54;6.50;;;5.90;;
20014;SDS011;61787;42.022;23.078;2022-08-19T00:36:57;8.27;;;5.82;;
20014;SDS011;61787;42.022;23.078;2022-08-19T00:38:00;8.05;;;4.97;;
20014;SDS011;61787;42.022;23.078;2022-08-19T00:39:02;7.63;;;5.68;;
20014;SDS011;61787;42.022;23.078;2022-08-19T00:40:05;7.30;;;5.78;;
20014;SDS011;61787;42.022;23.078;2022-08-19T00:41:09;6.63;;;5.43;;
20014;SDS011;61787;42.022;23.078;2022-08-19T00:42:15;5.63;;;5.00;;
20014;SDS011;61787;42.022;23.078;2022-08-19T00:43:20;6.68;;;5.18;;
20014;SDS011;61787;42.022;23.078;2022-08-19T00:44:26;6.70;;;5.25;;
20014;SDS011;61787;42.022;23.078;2022-08-19T00:45:29;6.68;;;5.22;;
20014;SDS011;61787;42.022;23.078;2022-08-19T00:46:37;6.65;;;5.25;;
20014;SDS011;61787;42.022;23.078;2022-08-19T00:47:41;6.38;;;5.47;;
20014;SDS011;61787;42.022;23.078;2022-08-19T00:48:43;9.63;;;5.55;;
20014;SDS011;61787;42.022;23.078;2022-08-19T00:49:46;7.22;;;5.45;;
20014;SDS011;61787;42.022;23.078;2022-08-19T00:50:52;7.05;;;5.07;;
20014;SDS011;61787;42.022;23.078;2022-08-19T00:51:57;10.90;;;5.53;;
20014;SDS011;61787;42.022;23.078;2022-08-19T00:53:06;7.05;;;5.22;;
20014;SDS011;61787;42.022;23.078;2022-08-19T00:54:08;8.65;;;5.57;;
20014;SDS011;61787;42.022;23.078;2022-08-19T00:55:12;7.65;;;5.13;;
20014;SDS011;61787;42.022;23.078;2022-08-19T00:56:19;7.32;;;5.00;;
20014;SDS011;61787;42.022;23.078;2022-08-19T00:57:22;9.00;;;5.22;;
20014;SDS011;61787;42.022;23.078;2022-08-19T00:58:30;11.68;;;5.60;;
20014;SDS011;61787;42.022;23.078;2022-08-19T00:59:34;6.55;;;5.20;;
20014;SDS011;61787;42.022;23.078;2022-08-19T01:00:58;8.35;;;5.68;;
20014;SDS011;61787;42.022;23.078;2022-08-19T01:02:01;13.82;;;5.60;;
20014;SDS011;61787;42.022;23.078;2022-08-19T01:03:06;9.00;;;5.07;;
20014;SDS011;61787;42.022;23.078;2022-08-19T01:04:09;8.77;;;5.05;;
20014;SDS011;61787;42.022;23.078;2022-08-19T01:05:13;11.25;;;5.85;;
20014;SDS011;61787;42.022;23.078;2022-08-19T01:06:19;6.80;;;5.20;;
20014;SDS011;61787;42.022;23.078;2022-08-19T01:07:21;6.25;;;5.53;;
20014;SDS011;61787;42.022;23.078;2022-08-19T01:08:24;9.98;;;5.60;;
20014;SDS011;61787;42.022;23.078;2022-08-19T01:09:25;7.40;;;5.40;;
20014;SDS011;61787;42.022;23.078;2022-08-19T01:10:29;8.23;;;5.82;;
20014;SDS011;61787;42.022;23.078;2022-08-19T01:11:40;6.50;;;5.80;;
20014;SDS011;61787;42.022;23.078;2022-08-19T01:12:45;7.35;;;5.53;;
20014;SDS011;61787;42.022;23.078;2022-08-19T01:13:48;7.55;;;5.53;;
20014;SDS011;61787;42.022;23.078;2022-08-19T01:14:53;6.25;;;5.65;;
20014;SDS011;61787;42.022;23.078;2022-08-19T01:15:56;9.10;;;6.15;;
20014;SDS011;61787;42.022;23.078;2022-08-19T01:17:01;6.85;;;6.15;;
20014;SDS011;61787;42.022;23.078;2022-08-19T01:18:06;6.57;;;5.82;;
20014;SDS011;61787;42.022;23.078;2022-08-19T01:19:12;8.38;;;5.57;;
20014;SDS011;61787;42.022;23.078;2022-08-19T01:20:21;7.65;;;6.13;;
20014;SDS011;61787;42.022;23.078;2022-08-19T01:21:27;7.35;;;5.97;;
20014;SDS011;61787;42.022;23.078;2022-08-19T01:23:44;6.55;;;5.95;;
20014;SDS011;61787;42.022;23.078;2022-08-19T01:24:46;9.55;;;6.20;;
20014;SDS011;61787;42.022;23.078;2022-08-19T01:25:51;9.50;;;5.60;;
20014;SDS011;61787;42.022;23.078;2022-08-19T01:26:55;8.50;;;5.25;;
20014;SDS011;61787;42.022;23.078;2022-08-19T01:27:57;7.47;;;5.63;;
20014;SDS011;61787;42.022;23.078;2022-08-19T01:29:11;10.23;;;5.40;;
20014;SDS011;61787;42.022;23.078;2022-08-19T01:30:17;7.88;;;5.88;;
20014;SDS011;61787;42.022;23.078;2022-08-19T01:31:23;7.03;;;5.28;;
20014;SDS011;61787;42.022;23.078;2022-08-19T01:32:28;6.10;;;5.25;;
20014;SDS011;61787;42.022;23.078;2022-08-19T01:33:34;5.65;;;5.18;;
20014;SDS011;61787;42.022;23.078;2022-08-19T01:34:35;5.80;;;5.28;;
20014;SDS011;61787;42.022;23.078;2022-08-19T01:35:37;7.55;;;5.78;;
20014;SDS011;61787;42.022;23.078;2022-08-19T01:36:40;6.30;;;5.70;;
20014;SDS011;61787;42.022;23.078;2022-08-19T01:37:48;7.72;;;5.95;;
20014;SDS011;61787;42.022;23.078;2022-08-19T01:38:54;6.10;;;5.20;;
20014;SDS011;61787;42.022;23.078;2022-08-19T01:39:56;7.63;;;5.90;;
20014;SDS011;61787;42.022;23.078;2022-08-19T01:40:58;6.75;;;5.78;;
20014;SDS011;61787;42.022;23.078;2022-08-19T01:42:01;9.50;;;6.00;;
20014;SDS011;61787;42.022;23.078;2022-08-19T01:43:04;9.02;;;5.68;;
20014;SDS011;61787;42.022;23.078;2022-08-19T01:44:07;8.27;;;5.72;;
20014;SDS011;61787;42.022;23.078;2022-08-19T01:45:20;6.45;;;5.25;;
20014;SDS011;61787;42.022;23.078;2022-08-19T01:46:23;6.10;;;5.50;;
20014;SDS011;61787;42.022;23.078;2022-08-19T01:47:25;6.53;;;5.75;;
20014;SDS011;61787;42.022;23.078;2022-08-19T01:48:27;7.47;;;5.70;;
20014;SDS011;61787;42.022;23.078;2022-08-19T01:49:35;7.20;;;5.65;;
20014;SDS011;61787;42.022;23.078;2022-08-19T01:50:38;7.50;;;5.97;;
20014;SDS011;61787;42.022;23.078;2022-08-19T01:51:39;8.70;;;5.95;;
20014;SDS011;61787;42.022;23.078;2022-08-19T01:52:42;8.45;;;6.50;;
20014;SDS011;61787;42.022;23.078;2022-08-19T01:53:47;6.95;;;6.20;;
20014;SDS011;61787;42.022;23.078;2022-08-19T01:54:49;8.32;;;6.70;;
20014;SDS011;61787;42.022;23.078;2022-08-19T01:55:51;10.82;;;6.18;;
20014;SDS011;61787;42.022;23.078;2022-08-19T01:56:54;7.15;;;6.15;;
20014;SDS011;61787;42.022;23.078;2022-08-19T01:58:01;9.20;;;6.32;;
20014;SDS011;61787;42.022;23.078;2022-08-19T01:59:08;7.32;;;6.20;;
20014;SDS011;61787;42.022;23.078;2022-08-19T02:00:15;9.25;;;5.78;;
20014;SDS011;61787;42.022;23.078;2022-08-19T02:01:18;9.38;;;5.95;;
20014;SDS011;61787;42.022;23.078;2022-08-19T02:02:20;7.47;;;5.80;;
20014;SDS011;61787;42.022;23.078;2022-08-19T02:03:22;9.23;;;6.00;;
20014;SDS011;61787;42.022;23.078;2022-08-19T02:04:24;7.10;;;5.78;;
20014;SDS011;61787;42.022;23.078;2022-08-19T02:05:26;9.05;;;6.32;;
20014;SDS011;61787;42.022;23.078;2022-08-19T02:06:30;7.13;;;6.43;;
20014;SDS011;61787;42.022;23.078;2022-08-19T02:07:31;8.93;;;5.82;;
20014;SDS011;61787;42.022;23.078;2022-08-19T02:08:35;6.55;;;5.95;;
20014;SDS011;61787;42.022;23.078;2022-08-19T02:09:38;7.63;;;6.43;;
20014;SDS011;61787;42.022;23.078;2022-08-19T02:10:40;7.78;;;6.97;;
20014;SDS011;61787;42.022;23.078;2022-08-19T02:11:43;7.03;;;6.40;;
20014;SDS011;61787;42.022;23.078;2022-08-19T02:12:45;6.47;;;5.88;;
20014;SDS011;61787;42.022;23.078;2022-08-19T02:13:47;7.05;;;6.40;;
20014;SDS011;61787;42.022;23.078;2022-08-19T02:14:50;6.78;;;6.15;;
20014;SDS011;61787;42.022;23.078;2022-08-19T02:15:52;8.57;;;6.18;;
20014;SDS011;61787;42.022;23.078;2022-08-19T02:16:53;7.28;;;6.15;;
20014;SDS011;61787;42.022;23.078;2022-08-19T02:17:55;6.93;;;6.22;;
20014;SDS011;61787;42.022;23.078;2022-08-19T02:18:57;9.27;;;6.38;;
20014;SDS011;61787;42.022;23.078;2022-08-19T02:20:02;6.35;;;5.75;;
20014;SDS011;61787;42.022;23.078;2022-08-19T02:21:05;9.68;;;5.63;;
20014;SDS011;61787;42.022;23.078;2022-08-19T02:22:07;7.80;;;5.38;;
20014;SDS011;61787;42.022;23.078;2022-08-19T02:23:09;8.68;;;6.40;;
20014;SDS011;61787;42.022;23.078;2022-08-19T02:24:16;6.63;;;6.03;;
20014;SDS011;61787;42.022;23.078;2022-08-19T02:25:17;7.85;;;5.50;;
20014;SDS011;61787;42.022;23.078;2022-08-19T02:26:19;7.45;;;5.78;;
20014;SDS011;61787;42.022;23.078;2022-08-19T02:27:21;6.85;;;5.60;;
20014;SDS011;61787;42.022;23.078;2022-08-19T02:28:23;9.73;;;5.97;;
20014;SDS011;61787;42.022;23.078;2022-08-19T02:29:25;6.95;;;6.22;;
20014;SDS011;61787;42.022;23.078;2022-08-19T02:30:27;6.70;;;6.07;;
20014;SDS011;61787;42.022;23.078;2022-08-19T02:31:28;7.43;;;6.28;;
20014;SDS011;61787;42.022;23.078;2022-08-19T02:32:30;5.65;;;5.10;;
20014;SDS011;61787;42.022;23.078;2022-08-19T02:33:32;6.95;;;6.10;;
20014;SDS011;61787;42.022;23.078;2022-08-19T02:34:34;10.07;;;5.70;;
20014;SDS011;61787;42.022;23.078;2022-08-19T02:35:35;8.27;;;5.60;;
20014;SDS011;61787;42.022;23.078;2022-08-19T02:36:37;9.52;;;5.90;;
20014;SDS011;61787;42.022;23.078;2022-08-19T02:37:43;9.18;;;6.40;;
20014;SDS011;61787;42.022;23.078;2022-08-19T02:39:03;6.35;;;5.75;;
20014;SDS011;61787;42.022;23.078;2022-08-19T02:40:05;8.25;;;6.07;;
20014;SDS011;61787;42.022;23.078;2022-08-19T02:41:20;8.30;;;6.70;;
20014;SDS011;61787;42.022;23.078;2022-08-19T02:42:27;7.55;;;5.82;;
20014;SDS011;61787;42.022;23.078;2022-08-19T02:43:29;6.95;;;6.22;;
20014;SDS011;61787;42.022;23.078;2022-08-19T02:44:38;6.95;;;6.25;;
20014;SDS011;61787;42.022;23.078;2022-08-19T02:45:40;6.45;;;5.75;;
20014;SDS011;61787;42.022;23.078;2022-08-19T02:46:42;7.00;;;6.20;;
20014;SDS011;61787;42.022;23.078;2022-08-19T02:47:46;7.60;;;6.07;;
20014;SDS011;61787;42.022;23.078;2022-08-19T02:48:48;6.32;;;5.70;;
20014;SDS011;61787;42.022;23.078;2022-08-19T02:49:51;6.93;;;6.13;;
20014;SDS011;61787;42.022;23.078;2022-08-19T02:50:53;7.25;;;5.97;;
20014;SDS011;61787;42.022;23.078;2022-08-19T02:51:56;9.85;;;6.97;;
20014;SDS011;61787;42.022;23.078;2022-08-19T02:52:58;8.00;;;6.47;;
20014;SDS011;61787;42.022;23.078;2022-08-19T02:53:59;6.90;;;6.20;;
20014;SDS011;61787;42.022;23.078;2022-08-19T02:55:02;7.45;;;6.43;;
20014;SDS011;61787;42.022;23.078;2022-08-19T02:56:06;8.85;;;6.65;;
20014;SDS011;61787;42.022;23.078;2022-08-19T02:57:08;7.25;;;6.55;;
20014;SDS011;61787;42.022;23.078;2022-08-19T02:58:10;8.20;;;6.05;;
20014;SDS011;61787;42.022;23.078;2022-08-19T02:59:12;9.10;;;6.72;;
20014;SDS011;61787;42.022;23.078;2022-08-19T03:00:14;8.02;;;6.30;;
20014;SDS011;61787;42.022;23.078;2022-08-19T03:01:23;7.70;;;6.53;;
20014;SDS011;61787;42.022;23.078;2022-08-19T03:02:26;6.63;;;6.13;;
20014;SDS011;61787;42.022;23.078;2022-08-19T03:03:28;7.13;;;6.40;;
20014;SDS011;61787;42.022;23.078;2022-08-19T03:04:30;8.02;;;6.65;;
20014;SDS011;61787;42.022;23.078;2022-08-19T03:05:32;6.63;;;6.03;;
20014;SDS011;61787;42.022;23.078;2022-08-19T03:06:54;8.85;;;6.50;;
20014;SDS011;61787;42.022;23.078;2022-08-19T03:08:02;9.07;;;6.20;;
20014;SDS011;61787;42.022;23.078;2022-08-19T03:09:06;10.40;;;7.20;;
20014;SDS011;61787;42.022;23.078;2022-08-19T03:10:08;8.77;;;6.72;;
20014;SDS011;61787;42.022;23.078;2022-08-19T03:11:14;8.52;;;6.38;;
20014;SDS011;61787;42.022;23.078;2022-08-19T03:12:23;7.32;;;6.68;;
20014;SDS011;61787;42.022;23.078;2022-08-19T03:13:25;7.95;;;6.97;;
20014;SDS011;61787;42.022;23.078;2022-08-19T03:14:29;9.15;;;7.13;;
20014;SDS011;61787;42.022;23.078;2022-08-19T03:15:32;11.55;;;6.72;;
20014;SDS011;61787;42.022;23.078;2022-08-19T03:16:35;7.95;;;6.50;;
20014;SDS011;61787;42.022;23.078;2022-08-19T03:17:45;9.23;;;6.30;;
20014;SDS011;61787;42.022;23.078;2022-08-19T03:18:47;7.43;;;6.65;;
20014;SDS011;61787;42.022;23.078;2022-08-19T03:19:49;7.22;;;6.53;;
20014;SDS011;61787;42.022;23.078;2022-08-19T03:20:51;10.50;;;7.20;;
20014;SDS011;61787;42.022;23.078;2022-08-19T03:21:55;9.52;;;6.35;;
20014;SDS011;61787;42.022;23.078;2022-08-19T03:22:57;7.95;;;6.35;;
20014;SDS011;61787;42.022;23.078;2022-08-19T03:24:00;10.00;;;6.25;;
20014;SDS011;61787;42.022;23.078;2022-08-19T03:25:03;7.35;;;6.40;;
20014;SDS011;61787;42.022;23.078;2022-08-19T03:26:05;9.77;;;6.60;;
20014;SDS011;61787;42.022;23.078;2022-08-19T03:27:17;7.68;;;6.60;;
20014;SDS011;61787;42.022;23.078;2022-08-19T03:28:19;7.00;;;6.25;;
20014;SDS011;61787;42.022;23.078;2022-08-19T03:29:22;7.43;;;6.32;;
20014;SDS011;61787;42.022;23.078;2022-08-19T03:30:31;7.15;;;6.45;;
20014;SDS011;61787;42.022;23.078;2022-08-19T03:31:33;9.68;;;6.55;;
20014;SDS011;61787;42.022;23.078;2022-08-19T03:32:45;8.15;;;6.50;;
20014;SDS011;61787;42.022;23.078;2022-08-19T03:33:53;6.68;;;6.03;;
20014;SDS011;61787;42.022;23.078;2022-08-19T03:34:55;7.70;;;6.93;;
20014;SDS011;61787;42.022;23.078;2022-08-19T03:36:21;7.57;;;5.95;;
20014;SDS011;61787;42.022;23.078;2022-08-19T03:37:24;7.10;;;6.15;;
20014;SDS011;61787;42.022;23.078;2022-08-19T03:38:27;11.50;;;6.43;;
20014;SDS011;61787;42.022;23.078;2022-08-19T03:39:29;21.40;;;7.20;;
20014;SDS011;61787;42.022;23.078;2022-08-19T03:40:31;9.07;;;6.88;;
20014;SDS011;61787;42.022;23.078;2022-08-19T03:41:36;9.20;;;6.32;;
20014;SDS011;61787;42.022;23.078;2022-08-19T03:42:46;10.65;;;6.82;;
20014;SDS011;61787;42.022;23.078;2022-08-19T03:43:50;7.88;;;6.78;;
20014;SDS011;61787;42.022;23.078;2022-08-19T03:44:52;8.13;;;6.18;;
20014;SDS011;61787;42.022;23.078;2022-08-19T03:46:01;12.23;;;7.22;;
20014;SDS011;61787;42.022;23.078;2022-08-19T03:47:05;10.10;;;6.53;;
20014;SDS011;61787;42.022;23.078;2022-08-19T03:48:07;10.05;;;7.68;;
20014;SDS011;61787;42.022;23.078;2022-08-19T03:49:09;8.40;;;6.80;;
20014;SDS011;61787;42.022;23.078;2022-08-19T03:50:14;12.70;;;7.38;;
20014;SDS011;61787;42.022;23.078;2022-08-19T03:51:30;9.65;;;6.97;;
20014;SDS011;61787;42.022;23.078;2022-08-19T03:52:34;7.05;;;6.35;;
20014;SDS011;61787;42.022;23.078;2022-08-19T03:53:38;12.15;;;6.70;;
20014;SDS011;61787;42.022;23.078;2022-08-19T03:54:40;9.27;;;6.97;;
20014;SDS011;61787;42.022;23.078;2022-08-19T03:55:43;8.93;;;6.53;;
20014;SDS011;61787;42.022;23.078;2022-08-19T03:56:46;9.90;;;6.90;;
20014;SDS011;61787;42.022;23.078;2022-08-19T03:57:49;7.45;;;6.43;;
20014;SDS011;61787;42.022;23.078;2022-08-19T03:58:51;9.52;;;6.57;;
20014;SDS011;61787;42.022;23.078;2022-08-19T03:59:53;12.13;;;6.47;;
20014;SDS011;61787;42.022;23.078;2022-08-19T04:01:06;9.75;;;7.43;;
20014;SDS011;61787;42.022;23.078;2022-08-19T04:02:10;9.85;;;6.93;;
20014;SDS011;61787;42.022;23.078;2022-08-19T04:03:13;8.35;;;6.75;;
20014;SDS011;61787;42.022;23.078;2022-08-19T04:04:14;10.43;;;7.20;;
20014;SDS011;61787;42.022;23.078;2022-08-19T04:05:16;7.95;;;6.85;;
20014;SDS011;61787;42.022;23.078;2022-08-19T04:07:22;7.88;;;6.55;;
20014;SDS011;61787;42.022;23.078;2022-08-19T04:08:23;7.32;;;6.63;;
20014;SDS011;61787;42.022;23.078;2022-08-19T04:09:25;9.63;;;7.03;;
20014;SDS011;61787;42.022;23.078;2022-08-19T04:10:28;10.35;;;7.00;;
20014;SDS011;61787;42.022;23.078;2022-08-19T04:11:52;10.95;;;6.65;;
20014;SDS011;61787;42.022;23.078;2022-08-19T04:12:56;7.82;;;6.38;;
20014;SDS011;61787;42.022;23.078;2022-08-19T04:13:58;7.68;;;6.97;;
20014;SDS011;61787;42.022;23.078;2022-08-19T04:15:04;8.50;;;6.78;;
20014;SDS011;61787;42.022;23.078;2022-08-19T04:16:08;8.88;;;6.72;;
20014;SDS011;61787;42.022;23.078;2022-08-19T04:17:11;8.38;;;5.97;;
20014;SDS011;61787;42.022;23.078;2022-08-19T04:18:15;8.45;;;7.28;;
20014;SDS011;61787;42.022;23.078;2022-08-19T04:19:17;7.45;;;6.57;;
20014;SDS011;61787;42.022;23.078;2022-08-19T04:20:19;8.38;;;6.97;;
20014;SDS011;61787;42.022;23.078;2022-08-19T04:21:22;8.95;;;6.80;;
20014;SDS011;61787;42.022;23.078;2022-08-19T04:22:25;8.55;;;6.85;;
20014;SDS011;61787;42.022;23.078;2022-08-19T04:23:29;9.68;;;7.32;;
20014;SDS011;61787;42.022;23.078;2022-08-19T04:24:31;9.15;;;7.45;;
20014;SDS011;61787;42.022;23.078;2022-08-19T04:25:37;9.52;;;7.63;;
20014;SDS011;61787;42.022;23.078;2022-08-19T04:26:40;9.88;;;8.05;;
20014;SDS011;61787;42.022;23.078;2022-08-19T04:27:42;8.57;;;7.10;;
20014;SDS011;61787;42.022;23.078;2022-08-19T04:28:47;9.40;;;7.65;;
20014;SDS011;61787;42.022;23.078;2022-08-19T04:29:50;10.90;;;7.50;;
20014;SDS011;61787;42.022;23.078;2022-08-19T04:30:53;10.13;;;7.90;;
20014;SDS011;61787;42.022;23.078;2022-08-19T04:31:56;8.38;;;7.47;;
20014;SDS011;61787;42.022;23.078;2022-08-19T04:32:59;10.15;;;8.07;;
20014;SDS011;61787;42.022;23.078;2022-08-19T04:34:02;11.07;;;7.85;;
20014;SDS011;61787;42.022;23.078;2022-08-19T04:35:06;8.48;;;7.13;;
20014;SDS011;61787;42.022;23.078;2022-08-19T04:36:19;8.60;;;7.60;;
20014;SDS011;61787;42.022;23.078;2022-08-19T04:37:23;9.52;;;7.22;;
20014;SDS011;61787;42.022;23.078;2022-08-19T04:38:25;10.13;;;7.15;;
20014;SDS011;61787;42.022;23.078;2022-08-19T04:39:29;8.25;;;6.60;;
20014;SDS011;61787;42.022;23.078;2022-08-19T04:40:50;6.50;;;5.90;;
20014;SDS011;61787;42.022;23.078;2022-08-19T04:42:11;8.85;;;6.43;;
20014;SDS011;61787;42.022;23.078;2022-08-19T04:43:32;9.38;;;6.38;;
20014;SDS011;61787;42.022;23.078;2022-08-19T04:44:35;8.73;;;6.40;;
20014;SDS011;61787;42.022;23.078;2022-08-19T04:45:46;6.93;;;6.22;;
20014;SDS011;61787;42.022;23.078;2022-08-19T04:46:49;7.68;;;6.15;;
20014;SDS011;61787;42.022;23.078;2022-08-19T04:47:54;7.78;;;6.93;;
20014;SDS011;61787;42.022;23.078;2022-08-19T04:49:21;11.15;;;6.22;;
20014;SDS011;61787;42.022;23.078;2022-08-19T04:50:26;11.27;;;6.82;;
20014;SDS011;61787;42.022;23.078;2022-08-19T04:51:28;6.78;;;6.03;;
20014;SDS011;61787;42.022;23.078;2022-08-19T04:52:32;8.52;;;6.28;;
20014;SDS011;61787;42.022;23.078;2022-08-19T04:53:35;6.35;;;5.53;;
20014;SDS011;61787;42.022;23.078;2022-08-19T04:54:38;10.07;;;6.18;;
20014;SDS011;61787;42.022;23.078;2022-08-19T04:55:41;8.63;;;6.10;;
20014;SDS011;61787;42.022;23.078;2022-08-19T04:56:43;8.63;;;6.38;;
20014;SDS011;61787;42.022;23.078;2022-08-19T04:57:45;10.35;;;6.22;;
20014;SDS011;61787;42.022;23.078;2022-08-19T04:58:47;10.68;;;6.18;;
20014;SDS011;61787;42.022;23.078;2022-08-19T04:59:53;10.45;;;6.82;;
20014;SDS011;61787;42.022;23.078;2022-08-19T05:00:55;10.05;;;6.72;;
20014;SDS011;61787;42.022;23.078;2022-08-19T05:01:57;10.85;;;6.82;;
20014;SDS011;61787;42.022;23.078;2022-08-19T05:02:58;10.57;;;6.50;;
20014;SDS011;61787;42.022;23.078;2022-08-19T05:04:03;8.75;;;6.97;;
20014;SDS011;61787;42.022;23.078;2022-08-19T05:05:07;10.73;;;6.72;;
20014;SDS011;61787;42.022;23.078;2022-08-19T05:06:13;7.97;;;6.47;;
20014;SDS011;61787;42.022;23.078;2022-08-19T05:07:16;13.90;;;6.80;;
20014;SDS011;61787;42.022;23.078;2022-08-19T05:08:20;15.82;;;6.75;;
20014;SDS011;61787;42.022;23.078;2022-08-19T05:09:31;10.93;;;6.57;;
20014;SDS011;61787;42.022;23.078;2022-08-19T05:10:53;6.38;;;5.78;;
20014;SDS011;61787;42.022;23.078;2022-08-19T05:11:55;7.20;;;6.20;;
20014;SDS011;61787;42.022;23.078;2022-08-19T05:12:56;10.38;;;6.03;;
20014;SDS011;61787;42.022;23.078;2022-08-19T05:13:58;7.53;;;6.65;;
20014;SDS011;61787;42.022;23.078;2022-08-19T05:15:01;8.63;;;6.03;;
20014;SDS011;61787;42.022;23.078;2022-08-19T05:16:05;12.73;;;7.10;;
20014;SDS011;61787;42.022;23.078;2022-08-19T05:17:07;9.75;;;6.97;;
20014;SDS011;61787;42.022;23.078;2022-08-19T05:18:27;9.13;;;7.10;;
20014;SDS011;61787;42.022;23.078;2022-08-19T05:19:48;14.38;;;6.75;;
20014;SDS011;61787;42.022;23.078;2022-08-19T05:21:08;9.38;;;6.20;;
20014;SDS011;61787;42.022;23.078;2022-08-19T05:22:31;8.98;;;6.35;;
20014;SDS011;61787;42.022;23.078;2022-08-19T05:23:33;9.15;;;6.22;;
20014;SDS011;61787;42.022;23.078;2022-08-19T05:24:35;10.15;;;6.40;;
20014;SDS011;61787;42.022;23.078;2022-08-19T05:25:57;10.50;;;6.30;;
20014;SDS011;61787;42.022;23.078;2022-08-19T05:26:59;10.57;;;6.72;;
20014;SDS011;61787;42.022;23.078;2022-08-19T05:28:03;9.70;;;6.45;;
20014;SDS011;61787;42.022;23.078;2022-08-19T05:29:05;8.88;;;6.38;;
20014;SDS011;61787;42.022;23.078;2022-08-19T05:30:10;8.50;;;6.15;;
20014;SDS011;61787;42.022;23.078;2022-08-19T05:31:12;7.75;;;6.00;;
20014;SDS011;61787;42.022;23.078;2022-08-19T05:32:14;8.65;;;6.25;;
20014;SDS011;61787;42.022;23.078;2022-08-19T05:33:16;10.35;;;6.28;;
20014;SDS011;61787;42.022;23.078;2022-08-19T05:34:19;13.05;;;6.75;;
20014;SDS011;61787;42.022;23.078;2022-08-19T05:35:23;9.02;;;6.25;;
20014;SDS011;61787;42.022;23.078;2022-08-19T05:36:25;8.27;;;6.38;;
20014;SDS011;61787;42.022;23.078;2022-08-19T05:37:28;9.32;;;6.03;;
20014;SDS011;61787;42.022;23.078;2022-08-19T05:38:30;9.55;;;6.25;;
20014;SDS011;61787;42.022;23.078;2022-08-19T05:39:33;9.50;;;6.30;;
20014;SDS011;61787;42.022;23.078;2022-08-19T05:40:41;6.90;;;6.03;;
20014;SDS011;61787;42.022;23.078;2022-08-19T05:41:53;12.05;;;6.53;;
20014;SDS011;61787;42.022;23.078;2022-08-19T05:42:58;7.47;;;5.75;;
20014;SDS011;61787;42.022;23.078;2022-08-19T05:44:04;9.00;;;6.03;;
20014;SDS011;61787;42.022;23.078;2022-08-19T05:45:10;8.98;;;6.07;;
20014;SDS011;61787;42.022;23.078;2022-08-19T05:46:17;7.35;;;6.07;;
20014;SDS011;61787;42.022;23.078;2022-08-19T05:47:28;6.47;;;5.95;;
20014;SDS011;61787;42.022;23.078;2022-08-19T05:48:30;8.90;;;6.55;;
20014;SDS011;61787;42.022;23.078;2022-08-19T05:49:33;7.53;;;6.03;;
20014;SDS011;61787;42.022;23.078;2022-08-19T05:50:35;9.48;;;6.15;;
20014;SDS011;61787;42.022;23.078;2022-08-19T05:51:37;10.52;;;6.63;;
20014;SDS011;61787;42.022;23.078;2022-08-19T05:52:39;8.52;;;6.60;;
20014;SDS011;61787;42.022;23.078;2022-08-19T05:53:50;7.65;;;6.38;;
20014;SDS011;61787;42.022;23.078;2022-08-19T05:54:53;7.10;;;6.40;;
20014;SDS011;61787;42.022;23.078;2022-08-19T05:55:56;8.00;;;6.90;;
20014;SDS011;61787;42.022;23.078;2022-08-19T05:57:00;8.10;;;7.28;;
20014;SDS011;61787;42.022;23.078;2022-08-19T05:58:02;8.38;;;6.70;;
20014;SDS011;61787;42.022;23.078;2022-08-19T05:59:04;10.38;;;7.32;;
20014;SDS011;61787;42.022;23.078;2022-08-19T06:00:10;10.90;;;7.78;;
20014;SDS011;61787;42.022;23.078;2022-08-19T06:01:14;8.57;;;6.65;;
20014;SDS011;61787;42.022;23.078;2022-08-19T06:02:18;9.27;;;7.13;;
20014;SDS011;61787;42.022;23.078;2022-08-19T06:03:20;10.02;;;7.10;;
20014;SDS011;61787;42.022;23.078;2022-08-19T06:04:22;8.70;;;6.03;;
20014;SDS011;61787;42.022;23.078;2022-08-19T06:05:24;7.90;;;6.43;;
20014;SDS011;61787;42.022;23.078;2022-08-19T06:06:29;10.75;;;6.30;;
20014;SDS011;61787;42.022;23.078;2022-08-19T06:07:32;8.02;;;6.00;;
20014;SDS011;61787;42.022;23.078;2022-08-19T06:08:36;6.85;;;6.25;;
20014;SDS011;61787;42.022;23.078;2022-08-19T06:09:40;11.15;;;7.57;;
20014;SDS011;61787;42.022;23.078;2022-08-19T06:10:44;9.00;;;6.20;;
20014;SDS011;61787;42.022;23.078;2022-08-19T06:11:47;8.68;;;6.45;;
20014;SDS011;61787;42.022;23.078;2022-08-19T06:12:56;9.32;;;6.97;;
20014;SDS011;61787;42.022;23.078;2022-08-19T06:13:59;8.75;;;6.30;;
20014;SDS011;61787;42.022;23.078;2022-08-19T06:15:11;10.65;;;6.55;;
20014;SDS011;61787;42.022;23.078;2022-08-19T06:16:14;12.02;;;6.28;;
20014;SDS011;61787;42.022;23.078;2022-08-19T06:17:23;9.32;;;6.28;;
20014;SDS011;61787;42.022;23.078;2022-08-19T06:18:27;13.32;;;6.80;;
20014;SDS011;61787;42.022;23.078;2022-08-19T06:19:29;10.40;;;6.50;;
20014;SDS011;61787;42.022;23.078;2022-08-19T06:20:32;10.05;;;6.53;;
20014;SDS011;61787;42.022;23.078;2022-08-19T06:21:53;10.93;;;6.10;;
20014;SDS011;61787;42.022;23.078;2022-08-19T06:22:55;8.80;;;6.10;;
20014;SDS011;61787;42.022;23.078;2022-08-19T06:23:57;13.90;;;6.47;;
20014;SDS011;61787;42.022;23.078;2022-08-19T06:25:00;9.63;;;6.38;;